Portada
METAR-TAF:

METAR-TAF

Aeroports :

Ciudad Obregón, Mèxic

latitud: 27-24N, longitud: 109-50W, altitud: 62 m

Observació

L'informe es va fer fa 1 hora i 22 minuts, a les 23:42 UTC
Vent 9 kt del Oest/Sud-Oest
Temperatura 30°C
Humitat 33%
Pressió 1010 hPa
Visibilitat: 16.1 km
Cel clar

METAR: MMCN 262342Z 24009KT 10SM SKC 30/12 A2983 RMK SLP102 ISOL CI

Hora: 18:04 (01:04 UTC)

Pronòstic

L'informe es va fer fa 8 hores i 7 minuts, a les 16:57 UTC
Pronòstic vàlid del 26 a les 18 UTC al 27 a les 18 UTC
Vent 15 kt del Sud/Sud-Oest
Visibilitat: 10 km
Cel ennuvolat a una alçada de 20000 ft
A partir de les 27 a les 0300 UTC
Vent 10 kt del Oest
Visibilitat: 10 km
Núvols disperses a una alçada de 25000 ft

TAF: MMCN 261657Z 2618/2718 20015KT P6SM BKN200 FM270300 28010KT P6SM SCT250

Observacions i pronòstics meteorològics de més de 4000 aeroports (METAR i TAF).

Les estacions disponibles són els punts grocs i vermells al mapa.

Posi el ratolí al punt desitjat per veure el nom de l'estació.

Feu clic per veure les observacions i els pronòstics meteorològics.

Per canviar el mapa: feu clic els botons verds amb una creu de color negre per apropar; al botó verd amb un guió per allunyar la imatge; o en les fletxes verdes per a mapes adjacents.


METAR-TAF: